createdAt,value
2022-08-04T00:01:18.959Z,99771.19
2022-08-04T00:03:55.644Z,99769.44
2022-08-04T00:06:36.660Z,99772.63
2022-08-04T00:09:11.803Z,99768.38
2022-08-04T00:11:46.058Z,99773.63
2022-08-04T00:14:16.818Z,99764.38
2022-08-04T00:16:45.465Z,99766.78
2022-08-04T00:19:17.872Z,99760.09
2022-08-04T00:21:52.955Z,99767.56
2022-08-04T00:24:23.300Z,99761.38
2022-08-04T00:26:54.647Z,99768.50
2022-08-04T00:29:23.539Z,99766.56
2022-08-04T00:31:56.885Z,99763.13
2022-08-04T00:34:28.447Z,99769.47
2022-08-04T00:36:59.027Z,99759.34
2022-08-04T00:39:28.443Z,99756.88
2022-08-04T00:42:30.889Z,99768.47
2022-08-04T00:45:12.619Z,99761.81
2022-08-04T00:47:52.757Z,99766.06
2022-08-04T00:50:32.420Z,99765.13
2022-08-04T00:53:14.449Z,99769.22
2022-08-04T00:56:15.318Z,99759.38
2022-08-04T00:59:00.689Z,99767.13
2022-08-04T01:01:45.700Z,99755.56
2022-08-04T01:04:22.199Z,99769.03
2022-08-04T01:07:09.615Z,99765.38
2022-08-04T01:09:51.821Z,99762.81
2022-08-04T01:12:38.901Z,99763.00
2022-08-04T01:15:09.088Z,99758.00
2022-08-04T01:17:50.439Z,99764.28
2022-08-04T01:20:23.013Z,99753.59
2022-08-04T01:23:44.063Z,99759.56
2022-08-04T01:26:43.332Z,99757.91
2022-08-04T01:29:27.439Z,99765.09
2022-08-04T01:32:06.225Z,99763.63
2022-08-04T01:34:38.208Z,99770.19
2022-08-04T01:37:12.780Z,99767.97
2022-08-04T01:39:50.773Z,99758.00
2022-08-04T01:42:31.951Z,99751.31
2022-08-04T01:45:05.763Z,99757.31
2022-08-04T01:47:36.043Z,99753.97
2022-08-04T01:50:08.021Z,99754.28
2022-08-04T01:52:37.441Z,99759.81
2022-08-04T01:55:10.532Z,99755.09
2022-08-04T01:57:42.765Z,99752.50
2022-08-04T02:00:14.710Z,99752.34
2022-08-04T02:02:43.355Z,99750.97
2022-08-04T02:05:13.151Z,99750.97
2022-08-04T02:07:51.838Z,99759.25
2022-08-04T02:10:30.314Z,99751.63
2022-08-04T02:13:10.740Z,99751.72
2022-08-04T02:15:57.197Z,99747.31
2022-08-04T02:18:29.924Z,99755.25
2022-08-04T02:21:00.939Z,99736.44
2022-08-04T02:23:37.207Z,99745.63
2022-08-04T02:26:08.195Z,99740.41
2022-08-04T02:28:54.566Z,99737.31
2022-08-04T02:31:32.008Z,99739.34
2022-08-04T02:34:07.527Z,99732.75
2022-08-04T02:36:38.448Z,99734.78
2022-08-04T02:39:08.350Z,99739.34
2022-08-04T02:41:37.474Z,99739.19
2022-08-04T02:44:07.671Z,99738.09
2022-08-04T02:46:39.249Z,99738.81
2022-08-04T02:49:09.532Z,99735.53
2022-08-04T02:51:41.481Z,99730.00
2022-08-04T02:54:10.530Z,99738.81
2022-08-04T02:56:40.674Z,99732.44
2022-08-04T02:59:11.333Z,99735.09
2022-08-04T03:01:57.193Z,99738.72
2022-08-04T03:04:56.874Z,99738.72
2022-08-04T03:07:58.588Z,99734.72
2022-08-04T03:10:58.915Z,99741.09
2022-08-04T03:13:48.477Z,99739.03
2022-08-04T03:16:38.467Z,99751.41
2022-08-04T03:19:42.781Z,99746.50
2022-08-04T03:22:24.988Z,99741.09
2022-08-04T03:25:22.848Z,99739.19
2022-08-04T03:28:24.450Z,99749.28
2022-08-04T03:31:09.813Z,99747.47
2022-08-04T03:34:00.872Z,99739.34
2022-08-04T03:37:02.546Z,99744.31
2022-08-04T03:40:09.002Z,99747.31
2022-08-04T03:43:59.212Z,99749.31
2022-08-04T03:46:34.220Z,99751.81
2022-08-04T03:49:41.166Z,99756.06
2022-08-04T03:52:51.181Z,99754.41
2022-08-04T03:55:47.854Z,99751.16
2022-08-04T03:59:12.774Z,99751.00
2022-08-04T04:02:06.722Z,99754.72
2022-08-04T04:04:48.993Z,99757.25
2022-08-04T04:08:02.065Z,99763.84
2022-08-04T04:10:56.641Z,99757.00
2022-08-04T04:13:37.269Z,99755.03
2022-08-04T04:16:27.198Z,99760.88
2022-08-04T04:19:23.944Z,99754.97
2022-08-04T04:22:15.655Z,99752.69
2022-08-04T04:25:19.150Z,99753.44
2022-08-04T04:28:46.056Z,99751.16
2022-08-04T04:31:10.522Z,99759.81
2022-08-04T04:33:44.651Z,99757.53
2022-08-04T04:36:17.974Z,99763.03
2022-08-04T04:39:00.775Z,99762.00
2022-08-04T04:41:57.167Z,99760.25
2022-08-04T04:44:46.975Z,99764.50
2022-08-04T04:48:08.879Z,99758.03
2022-08-04T04:50:28.515Z,99762.53
2022-08-04T04:53:10.932Z,99758.06
2022-08-04T04:55:48.134Z,99765.72
2022-08-04T04:58:19.296Z,99770.88
2022-08-04T05:01:17.829Z,99765.91
2022-08-04T05:04:13.068Z,99768.34
2022-08-04T05:07:07.680Z,99773.75
2022-08-04T05:09:52.196Z,99766.53
2022-08-04T05:14:32.293Z,99772.47
2022-08-04T05:15:31.735Z,99773.81
2022-08-04T05:18:03.535Z,99778.59
2022-08-04T05:20:40.264Z,99782.38
2022-08-04T05:23:15.664Z,99777.91
2022-08-04T05:25:59.026Z,99773.75
2022-08-04T05:28:33.820Z,99780.47
2022-08-04T05:31:05.483Z,99784.56
2022-08-04T05:33:41.172Z,99787.50
2022-08-04T05:36:24.905Z,99783.47
2022-08-04T05:39:03.677Z,99794.84
2022-08-04T05:41:45.853Z,99786.84
2022-08-04T05:44:17.939Z,99789.94
2022-08-04T05:46:54.022Z,99793.16
2022-08-04T05:49:26.291Z,99785.75
2022-08-04T05:51:58.152Z,99787.72
2022-08-04T05:54:27.467Z,99794.25
2022-08-04T05:59:25.635Z,99800.75
2022-08-04T06:01:57.935Z,99807.06
2022-08-04T06:04:32.121Z,99807.97
2022-08-04T06:07:00.995Z,99804.22
2022-08-04T06:09:29.643Z,99804.59
2022-08-04T06:12:03.685Z,99808.22
2022-08-04T06:14:39.576Z,99807.56
2022-08-04T06:18:41.157Z,99806.09
2022-08-04T06:20:18.075Z,99807.50
2022-08-04T06:22:54.062Z,99801.94
2022-08-04T06:25:25.007Z,99807.19
2022-08-04T06:27:57.033Z,99810.44
2022-08-04T06:30:27.402Z,99807.53
2022-08-04T06:33:03.352Z,99809.31
2022-08-04T06:35:35.351Z,99816.13
2022-08-04T06:38:04.215Z,99816.00
2022-08-04T06:40:34.817Z,99814.66
2022-08-04T06:43:05.905Z,99819.38
2022-08-04T06:45:36.825Z,99818.50
2022-08-04T06:48:06.464Z,99826.50
2022-08-04T06:51:28.278Z,99823.97
2022-08-04T06:53:27.140Z,99826.50
2022-08-04T06:55:56.036Z,99826.97
2022-08-04T06:58:26.114Z,99827.03
2022-08-04T07:00:55.821Z,99829.63
2022-08-04T07:03:24.207Z,99835.09
2022-08-04T07:05:54.393Z,99835.88
2022-08-04T07:08:23.868Z,99838.41
2022-08-04T07:10:53.474Z,99841.72
2022-08-04T07:13:23.217Z,99835.41
2022-08-04T07:15:52.249Z,99840.75
2022-08-04T07:18:20.361Z,99843.19
2022-08-04T07:20:49.182Z,99843.25
2022-08-04T07:23:25.213Z,99841.88
2022-08-04T07:25:59.652Z,99833.19
2022-08-04T07:28:40.838Z,99832.13
2022-08-04T07:31:31.794Z,99832.25
2022-08-04T07:34:17.769Z,99837.31
2022-08-04T07:36:55.029Z,99841.00
2022-08-04T07:39:29.157Z,99842.50
2022-08-04T07:42:01.175Z,99840.69
2022-08-04T07:44:30.977Z,99841.81
2022-08-04T07:46:59.684Z,99845.38
2022-08-04T07:49:56.062Z,99839.06
2022-08-04T07:52:17.313Z,99839.78
2022-08-04T07:54:47.567Z,99836.50
2022-08-04T07:57:39.652Z,99835.53
2022-08-04T08:00:09.024Z,99836.69
2022-08-04T08:02:40.500Z,99831.84
2022-08-04T08:05:11.109Z,99828.00
2022-08-04T08:07:50.719Z,99827.06
2022-08-04T08:10:24.885Z,99833.38
2022-08-04T08:12:53.785Z,99835.84
2022-08-04T08:15:22.633Z,99849.03
2022-08-04T08:17:58.279Z,99838.69
2022-08-04T08:20:32.814Z,99837.56
2022-08-04T08:23:03.467Z,99822.09
2022-08-04T08:25:34.613Z,99831.22
2022-08-04T08:28:05.217Z,99835.91
2022-08-04T08:30:34.800Z,99831.75
2022-08-04T08:33:06.368Z,99829.59
2022-08-04T08:35:52.999Z,99827.38
2022-08-04T08:38:30.056Z,99830.94
2022-08-04T08:41:22.105Z,99827.34
2022-08-04T08:44:09.013Z,99817.06
2022-08-04T08:47:03.250Z,99811.09
2022-08-04T08:50:03.032Z,99812.44
2022-08-04T08:53:00.771Z,99821.72
2022-08-04T08:55:47.663Z,99814.34
2022-08-04T08:58:37.062Z,99814.91
2022-08-04T09:01:14.186Z,99816.16
2022-08-04T09:04:10.950Z,99827.78
2022-08-04T09:07:16.829Z,99819.50
2022-08-04T09:10:01.730Z,99817.94
2022-08-04T09:12:35.097Z,99811.06
2022-08-04T09:15:14.030Z,99805.34
2022-08-04T09:17:48.683Z,99803.34
2022-08-04T09:20:26.595Z,99816.19
2022-08-04T09:23:07.198Z,99819.78
2022-08-04T09:25:42.483Z,99819.75
2022-08-04T09:28:43.691Z,99827.41
2022-08-04T09:31:15.271Z,99817.06
2022-08-04T09:33:52.028Z,99830.66
2022-08-04T09:36:29.531Z,99830.22
2022-08-04T09:39:11.246Z,99815.34
2022-08-04T09:41:52.437Z,99821.44
2022-08-04T09:44:49.207Z,99815.34
2022-08-04T09:47:25.501Z,99814.13
2022-08-04T09:50:19.683Z,99806.88
2022-08-04T09:52:57.433Z,99811.56
2022-08-04T09:55:54.027Z,99820.94
2022-08-04T09:58:34.413Z,99812.25
2022-08-04T10:01:07.506Z,99813.16
2022-08-04T10:03:42.304Z,99804.94
2022-08-04T10:06:26.941Z,99800.56
2022-08-04T10:09:15.303Z,99788.66
2022-08-04T10:11:56.928Z,99787.53
2022-08-04T10:14:40.003Z,99795.94
2022-08-04T10:17:24.700Z,99806.34
2022-08-04T10:20:04.249Z,99803.13
2022-08-04T10:22:55.567Z,99815.25
2022-08-04T10:26:05.913Z,99807.50
2022-08-04T10:28:31.677Z,99822.69
2022-08-04T10:31:04.554Z,99815.56
2022-08-04T10:33:39.302Z,99814.28
2022-08-04T10:36:11.713Z,99792.22
2022-08-04T10:38:43.747Z,99800.19
2022-08-04T10:41:19.617Z,99807.50
2022-08-04T10:44:00.861Z,99810.72
2022-08-04T10:46:34.682Z,99811.91
2022-08-04T10:49:08.667Z,99811.44
2022-08-04T10:51:58.514Z,99794.03
2022-08-04T10:54:34.234Z,99789.72
2022-08-04T10:57:08.628Z,99776.19
2022-08-04T10:59:44.677Z,99784.78
2022-08-04T11:02:27.454Z,99783.44
2022-08-04T11:05:07.981Z,99784.66
2022-08-04T11:07:42.718Z,99764.81
2022-08-04T11:10:11.485Z,99755.66
2022-08-04T11:12:41.483Z,99758.09
2022-08-04T11:15:14.734Z,99766.28
2022-08-04T11:17:48.500Z,99753.53
2022-08-04T11:20:37.421Z,99759.69
2022-08-04T11:23:10.270Z,99751.97
2022-08-04T11:25:51.958Z,99754.47
2022-08-04T11:28:32.232Z,99750.09
2022-08-04T11:33:37.573Z,99772.47
2022-08-04T11:36:14.441Z,99780.19
2022-08-04T11:38:52.218Z,99804.53
2022-08-04T11:41:28.026Z,99809.03
2022-08-04T11:44:03.265Z,99810.63
2022-08-04T11:56:12.604Z,99804.06
2022-08-04T11:58:50.362Z,99809.91
2022-08-04T12:01:27.777Z,99794.75
2022-08-04T12:04:04.963Z,99804.03
2022-08-04T12:06:40.113Z,99788.41
2022-08-04T12:09:19.059Z,99787.56
2022-08-04T12:11:57.491Z,99791.47
2022-08-04T12:14:39.506Z,99795.31
2022-08-04T12:17:08.613Z,99803.53
2022-08-04T12:20:04.556Z,99799.22
2022-08-04T12:22:38.711Z,99780.84
2022-08-04T12:25:12.041Z,99771.88
2022-08-04T12:27:49.190Z,99778.50
2022-08-04T12:31:00.603Z,99779.22
2022-08-04T12:33:17.980Z,99779.41
2022-08-04T12:36:04.344Z,99773.44
2022-08-04T12:38:49.962Z,99773.81
2022-08-04T12:41:24.184Z,99770.16
2022-08-04T12:43:55.573Z,99772.44
2022-08-04T12:46:26.006Z,99770.56
2022-08-04T12:49:00.164Z,99754.03
2022-08-04T12:51:31.090Z,99757.34
2022-08-04T12:54:28.986Z,99771.22
2022-08-04T12:57:00.375Z,99754.56
2022-08-04T12:59:32.381Z,99723.56
2022-08-04T13:02:08.570Z,99730.16
2022-08-04T13:04:51.364Z,99739.81
2022-08-04T13:07:23.435Z,99739.94
2022-08-04T13:09:52.610Z,99736.78
2022-08-04T13:12:32.032Z,99745.94
2022-08-04T13:15:17.992Z,99740.69
2022-08-04T13:17:52.991Z,99731.97
2022-08-04T13:20:35.861Z,99724.41
2022-08-04T13:23:10.837Z,99725.25
2022-08-04T13:26:45.195Z,99716.91
2022-08-04T13:28:34.754Z,99730.31
2022-08-04T13:31:08.739Z,99729.28
2022-08-04T13:33:39.274Z,99707.69
2022-08-04T13:36:09.454Z,99699.34
2022-08-04T13:38:39.846Z,99677.13
2022-08-04T13:41:08.791Z,99663.38
2022-08-04T13:44:15.796Z,99664.66
2022-08-04T13:46:36.539Z,99663.69
2022-08-04T13:49:42.520Z,99659.09
2022-08-04T13:52:01.474Z,99652.28
2022-08-04T13:54:42.685Z,99657.34
2022-08-04T13:57:15.163Z,99671.03
2022-08-04T13:59:47.142Z,99686.38
2022-08-04T14:02:26.784Z,99687.41
2022-08-04T14:04:58.416Z,99666.69
2022-08-04T14:07:29.337Z,99661.94
2022-08-04T14:10:03.888Z,99656.09
2022-08-04T14:12:38.456Z,99664.88
2022-08-04T14:16:01.938Z,99663.81
2022-08-04T14:18:23.423Z,99651.47
2022-08-04T14:21:07.442Z,99658.91
2022-08-04T14:23:48.159Z,99647.44
2022-08-04T14:26:32.637Z,99651.59
2022-08-04T14:29:26.202Z,99667.06
2022-08-04T14:40:45.965Z,99668.22
2022-08-04T14:45:55.061Z,99637.53
2022-08-04T14:48:26.177Z,99620.56
2022-08-04T14:50:54.144Z,99599.56
2022-08-04T14:53:26.513Z,99594.91
2022-08-04T14:55:58.790Z,99598.34
2022-08-04T14:58:35.264Z,99601.09
2022-08-04T15:01:09.667Z,99607.09
2022-08-04T15:03:49.618Z,99623.72
2022-08-04T15:06:22.701Z,99632.34
2022-08-04T15:08:51.947Z,99634.69
2022-08-04T15:11:23.249Z,99631.19
2022-08-04T15:13:52.035Z,99638.75
2022-08-04T15:16:20.515Z,99627.19
2022-08-04T15:18:49.485Z,99621.31
2022-08-04T15:21:18.759Z,99622.38
2022-08-04T15:23:47.614Z,99611.88
2022-08-04T15:26:19.674Z,99614.34
2022-08-04T15:28:57.702Z,99603.72
2022-08-04T15:32:06.961Z,99612.91
2022-08-04T15:34:15.851Z,99616.06
2022-08-04T15:36:57.064Z,99611.72
2022-08-04T15:39:36.156Z,99599.50
2022-08-04T15:42:20.989Z,99603.22
2022-08-04T15:46:02.426Z,99604.22
2022-08-04T15:48:29.043Z,99598.53
2022-08-04T15:51:08.302Z,99581.34
2022-08-04T15:54:27.248Z,99583.31
2022-08-04T15:57:02.234Z,99590.88
2022-08-04T16:00:15.207Z,99584.78
2022-08-04T16:02:44.864Z,99588.72
2022-08-04T16:05:46.347Z,99583.84
2022-08-04T16:08:18.457Z,99585.06
2022-08-04T16:10:47.986Z,99580.31
2022-08-04T16:13:19.605Z,99588.41
2022-08-04T16:15:50.536Z,99586.50
2022-08-04T16:18:39.393Z,99582.16
2022-08-04T16:21:18.061Z,99572.72
2022-08-04T16:24:06.386Z,99581.16
2022-08-04T16:26:54.850Z,99575.88
2022-08-04T16:29:39.943Z,99585.19
2022-08-04T16:32:19.750Z,99553.38
2022-08-04T16:34:56.468Z,99553.03
2022-08-04T16:37:30.616Z,99542.47
2022-08-04T16:40:36.430Z,99527.63
2022-08-04T16:43:08.488Z,99537.13
2022-08-04T16:45:44.457Z,99540.88
2022-08-04T16:48:14.039Z,99547.19
2022-08-04T16:50:56.293Z,99545.69
2022-08-04T16:53:52.894Z,99542.34
2022-08-04T16:56:18.905Z,99538.19
2022-08-04T16:58:53.724Z,99531.44
2022-08-04T17:01:32.991Z,99536.09
2022-08-04T17:04:06.261Z,99524.53
2022-08-04T17:06:37.941Z,99531.56
2022-08-04T17:09:08.189Z,99527.59
2022-08-04T17:11:36.154Z,99533.09
2022-08-04T17:14:06.061Z,99532.59
2022-08-04T17:16:36.976Z,99526.59
2022-08-04T17:19:06.380Z,99525.63
2022-08-04T17:21:38.111Z,99520.28
2022-08-04T17:24:16.037Z,99525.16
2022-08-04T17:26:53.463Z,99520.00
2022-08-04T17:29:43.578Z,99518.00
2022-08-04T17:32:18.732Z,99510.88
2022-08-04T17:34:51.267Z,99515.41
2022-08-04T17:37:40.181Z,99515.63
2022-08-04T17:40:11.481Z,99509.84
2022-08-04T17:48:24.806Z,99509.06
2022-08-04T17:50:53.985Z,99516.41
2022-08-04T17:54:01.606Z,99506.88
2022-08-04T17:56:51.393Z,99517.69
2022-08-04T17:59:56.148Z,99504.47
2022-08-04T18:02:11.614Z,99506.19
2022-08-04T18:05:06.285Z,99492.97
2022-08-04T18:08:45.403Z,99493.91
2022-08-04T18:10:51.911Z,99488.53
2022-08-04T18:13:26.003Z,99499.88
2022-08-04T18:16:02.902Z,99490.22
2022-08-04T18:18:32.380Z,99503.41
2022-08-04T18:21:03.019Z,99507.13
2022-08-04T18:23:33.444Z,99502.84
2022-08-04T18:26:04.023Z,99495.50
2022-08-04T18:28:33.300Z,99499.88
2022-08-04T18:31:02.902Z,99502.75
2022-08-04T18:33:39.992Z,99498.44
2022-08-04T18:39:13.105Z,99506.94
2022-08-04T18:41:51.573Z,99506.03
2022-08-04T18:44:31.600Z,99519.25
2022-08-04T18:47:22.362Z,99508.72
2022-08-04T18:50:59.786Z,99516.53
2022-08-04T18:52:45.353Z,99517.75
2022-08-04T18:55:56.111Z,99512.03
2022-08-04T18:58:06.498Z,99518.28
2022-08-04T19:00:36.372Z,99513.47
2022-08-04T19:03:05.857Z,99526.06
2022-08-04T19:05:41.551Z,99518.81
2022-08-04T19:08:33.135Z,99511.91
2022-08-04T19:11:00.501Z,99523.44
2022-08-04T19:13:34.871Z,99519.41
2022-08-04T19:16:03.800Z,99528.72
2022-08-04T19:18:45.054Z,99524.06
2022-08-04T19:21:14.304Z,99528.34
2022-08-04T19:24:23.498Z,99528.88
2022-08-04T19:30:14.683Z,99536.31
2022-08-04T19:39:44.484Z,99549.47
2022-08-04T19:42:22.101Z,99547.81
2022-08-04T19:54:43.660Z,99548.44
2022-08-04T20:00:33.999Z,99552.88
2022-08-04T20:03:22.608Z,99562.38
2022-08-04T20:16:30.449Z,99566.81
2022-08-04T20:46:35.338Z,99586.78
2022-08-04T20:49:03.732Z,99589.66
2022-08-04T20:51:33.736Z,99590.44
2022-08-04T20:54:16.709Z,99583.69
2022-08-04T20:56:51.061Z,99588.78
2022-08-04T20:59:34.334Z,99590.22
2022-08-04T21:02:07.109Z,99586.25
2022-08-04T21:04:48.582Z,99585.38
2022-08-04T21:07:17.102Z,99584.53
2022-08-04T21:09:49.966Z,99588.03
2022-08-04T21:12:27.170Z,99583.53
2022-08-04T21:15:00.143Z,99586.56
2022-08-04T21:17:59.383Z,99589.50
2022-08-04T21:20:24.652Z,99593.56
2022-08-04T21:22:59.866Z,99594.69
2022-08-04T21:25:30.855Z,99600.41
2022-08-04T21:28:04.459Z,99592.41
2022-08-04T21:30:52.572Z,99595.41
2022-08-04T21:33:23.289Z,99590.88
2022-08-04T21:35:54.298Z,99591.97
2022-08-04T21:38:27.892Z,99595.09
2022-08-04T21:41:01.425Z,99588.25
2022-08-04T21:43:34.466Z,99596.88
2022-08-04T21:46:11.923Z,99595.63
2022-08-04T21:48:42.416Z,99587.50
2022-08-04T21:51:21.681Z,99598.03
2022-08-04T21:54:08.104Z,99589.63
2022-08-04T21:56:39.917Z,99593.34
2022-08-04T21:59:14.359Z,99599.63
2022-08-04T22:01:51.848Z,99598.78
2022-08-04T22:04:22.575Z,99600.53
2022-08-04T22:06:52.047Z,99601.63
2022-08-04T22:09:22.359Z,99601.91
2022-08-04T22:11:52.213Z,99604.44
2022-08-04T22:14:29.427Z,99594.75
2022-08-04T22:17:04.121Z,99607.81
2022-08-04T22:19:49.879Z,99609.72
2022-08-04T22:22:25.194Z,99608.16
2022-08-04T22:24:58.387Z,99623.59
2022-08-04T22:27:47.335Z,99630.34
2022-08-04T22:30:18.167Z,99620.00
2022-08-04T22:32:47.255Z,99621.03
2022-08-04T22:35:36.617Z,99624.38
2022-08-04T22:38:24.545Z,99612.06
2022-08-04T22:40:58.080Z,99624.97
2022-08-04T22:43:32.826Z,99621.78
2022-08-04T22:46:07.609Z,99623.09
2022-08-04T22:48:37.678Z,99630.81
2022-08-04T22:51:08.664Z,99628.41
2022-08-04T22:53:37.503Z,99625.72
2022-08-04T22:56:10.560Z,99625.34
2022-08-04T22:58:45.417Z,99624.97
2022-08-04T23:01:19.507Z,99618.59
2022-08-04T23:03:55.111Z,99618.66
2022-08-04T23:06:28.310Z,99629.56
2022-08-04T23:08:57.394Z,99630.06
2022-08-04T23:11:34.750Z,99635.22
2022-08-04T23:14:04.564Z,99634.84
2022-08-04T23:16:32.938Z,99644.16
2022-08-04T23:19:09.868Z,99641.59
2022-08-04T23:21:47.257Z,99640.47
2022-08-04T23:24:16.337Z,99639.75
2022-08-04T23:26:44.421Z,99653.94
2022-08-04T23:29:12.445Z,99654.56
2022-08-04T23:31:59.519Z,99666.44
2022-08-04T23:34:29.564Z,99672.16
2022-08-04T23:36:59.398Z,99681.81
2022-08-04T23:39:42.323Z,99691.84
2022-08-04T23:42:20.917Z,99693.53
2022-08-04T23:44:49.931Z,99688.66
2022-08-04T23:48:18.792Z,99693.56
2022-08-04T23:50:06.898Z,99694.41
2022-08-04T23:52:36.510Z,99699.56
2022-08-04T23:55:07.366Z,99715.34
2022-08-04T23:58:05.373Z,99734.41
